Time;durP1;ratioP1;P1;durP2;ratioP2;P2;SDS_P1;SDS_P2;PMS_P1;PMS_P2;Temp;Humidity;BMP_temperature;BMP_pressure;BME280_temperature;BME280_humidity;BME280_pressure;Samples;Min_cycle;Max_cycle;Signal;HPM_P1;HPM_P2
2022/06/04 00:00:52;;;;;;;0.30;0.30;;;21.80;44.60;;;;;;6172972;28;20474;-71
2022/06/04 00:03:53;;;;;;;0.40;0.40;;;21.80;44.60;;;;;;6190547;28;20073;-71
2022/06/04 00:06:54;;;;;;;0.40;0.40;;;21.80;44.60;;;;;;6195429;28;20081;-70
2022/06/04 00:16:33;;;;;;;0.13;0.13;;;21.80;44.50;;;;;;6196298;28;20552;-73
2022/06/04 00:19:34;;;;;;;0.22;0.22;;;21.80;44.50;;;;;;6174636;28;20130;-73
2022/06/04 00:22:34;;;;;;;0.40;0.40;;;21.80;44.50;;;;;;6177184;28;20479;-72
2022/06/04 00:25:36;;;;;;;0.35;0.30;;;21.80;44.60;;;;;;6195522;28;20026;-72
2022/06/04 00:28:37;;;;;;;0.30;0.30;;;21.80;44.50;;;;;;6182820;28;20486;-73
2022/06/04 00:31:38;;;;;;;0.40;0.30;;;21.90;44.60;;;;;;6183630;28;20113;-73
2022/06/04 00:34:39;;;;;;;0.30;0.30;;;21.80;44.50;;;;;;6115468;28;1701886;-73
2022/06/04 00:37:40;;;;;;;0.32;0.32;;;21.80;44.40;;;;;;6177153;28;20022;-73
2022/06/04 00:41:02;;;;;;;0.20;0.20;;;21.90;44.50;;;;;;6195434;28;20393;-73
2022/06/04 00:44:13;;;;;;;0.22;0.22;;;21.90;44.50;;;;;;6182747;28;20518;-72
2022/06/04 00:47:24;;;;;;;0.40;0.40;;;21.80;44.40;;;;;;6173096;28;20065;-72
2022/06/04 00:50:26;;;;;;;0.28;0.28;;;21.90;44.50;;;;;;6196507;28;20057;-73
2022/06/04 00:53:27;;;;;;;0.32;0.30;;;21.80;44.40;;;;;;6187833;28;20026;-73
2022/06/04 00:56:52;;;;;;;0.30;0.30;;;21.90;44.40;;;;;;6172142;28;20023;-72
2022/06/04 01:00:00;;;;;;;0.25;0.25;;;21.80;44.40;;;;;;6172483;28;20144;-73
2022/06/04 01:03:09;;;;;;;0.32;0.32;;;21.90;44.40;;;;;;6175389;28;20057;-72
2022/06/04 01:06:19;;;;;;;1.27;0.30;;;21.90;44.30;;;;;;6196358;28;20026;-73
2022/06/04 01:09:23;;;;;;;0.30;0.30;;;21.90;44.40;;;;;;6182886;28;20029;-73
2022/06/04 01:12:41;;;;;;;0.22;0.22;;;21.90;44.30;;;;;;6172151;28;20117;-73
2022/06/04 01:15:44;;;;;;;0.30;0.30;;;21.90;44.30;;;;;;6195730;28;20054;-73
2022/06/04 01:18:49;;;;;;;0.30;0.30;;;21.90;44.30;;;;;;6186646;28;20537;-73
2022/06/04 01:22:09;;;;;;;0.30;0.30;;;21.90;44.20;;;;;;6172241;28;20041;-73
2022/06/04 01:25:25;;;;;;;0.47;0.40;;;21.90;44.30;;;;;;6189781;28;20053;-72
2022/06/04 01:28:29;;;;;;;0.38;0.38;;;21.90;44.30;;;;;;6192896;28;20045;-73
2022/06/04 01:31:36;;;;;;;0.38;0.30;;;21.90;44.30;;;;;;6170458;28;20095;-73
2022/06/04 01:34:45;;;;;;;0.30;0.30;;;21.90;44.30;;;;;;6170572;28;20489;-73
2022/06/04 01:37:55;;;;;;;0.20;0.20;;;21.90;44.20;;;;;;6170502;28;20023;-73
2022/06/04 01:41:19;;;;;;;0.30;0.30;;;21.90;44.20;;;;;;6193765;28;20019;-73
2022/06/04 01:44:36;;;;;;;0.40;0.30;;;21.90;44.20;;;;;;6186350;28;20458;-73
2022/06/04 01:47:38;;;;;;;0.30;0.30;;;21.90;44.20;;;;;;6171756;28;20098;-73
2022/06/04 01:50:47;;;;;;;0.70;0.30;;;21.90;44.20;;;;;;6189044;28;20038;-72
2022/06/04 01:53:52;;;;;;;0.40;0.40;;;21.90;44.20;;;;;;6192449;28;20188;-73
2022/06/04 01:56:57;;;;;;;0.30;0.30;;;21.90;44.30;;;;;;6171154;28;20118;-73
2022/06/04 02:00:05;;;;;;;1.35;0.35;;;21.90;44.20;;;;;;6182450;28;20022;-73
2022/06/04 02:03:17;;;;;;;0.40;0.32;;;21.90;44.20;;;;;;6195465;28;20030;-73
2022/06/04 02:06:26;;;;;;;0.70;0.30;;;21.90;44.00;;;;;;6172554;28;20048;-72
2022/06/04 02:09:27;;;;;;;0.40;0.40;;;21.90;44.10;;;;;;6177018;28;20018;-73
2022/06/04 02:12:28;;;;;;;0.40;0.40;;;21.90;44.10;;;;;;6178085;28;20121;-74
2022/06/04 02:16:04;;;;;;;0.63;0.30;;;21.90;44.00;;;;;;6181247;28;20062;-73
2022/06/04 02:19:05;;;;;;;0.20;0.20;;;21.90;44.10;;;;;;6172244;28;20027;-73
2022/06/04 02:22:06;;;;;;;0.30;0.30;;;21.90;44.00;;;;;;6193602;28;20049;-73
2022/06/04 02:25:09;;;;;;;0.30;0.30;;;21.90;44.00;;;;;;6184082;28;20023;-73
2022/06/04 02:28:10;;;;;;;0.30;0.30;;;21.90;44.00;;;;;;6170991;28;20074;-73
2022/06/04 02:31:46;;;;;;;0.68;0.30;;;21.90;44.00;;;;;;6186453;28;20034;-72
2022/06/04 02:35:02;;;;;;;0.20;0.20;;;21.90;44.00;;;;;;6188325;28;20039;-73
2022/06/04 02:38:15;;;;;;;0.30;0.30;;;21.90;44.00;;;;;;6170985;28;20034;-72
2022/06/04 02:41:24;;;;;;;0.40;0.30;;;21.90;44.00;;;;;;6187206;28;20363;-73
2022/06/04 02:44:31;;;;;;;0.30;0.30;;;21.90;44.00;;;;;;6194697;28;20113;-73
2022/06/04 02:47:45;;;;;;;0.47;0.40;;;21.90;44.00;;;;;;6194950;28;20024;-74
2022/06/04 02:50:54;;;;;;;0.30;0.30;;;21.90;43.90;;;;;;6183644;28;20035;-73
2022/06/04 02:53:55;;;;;;;0.60;0.43;;;21.90;43.90;;;;;;6170313;28;20026;-73
2022/06/04 02:56:58;;;;;;;0.40;0.30;;;21.90;43.90;;;;;;6189981;28;20026;-74
2022/06/04 03:00:00;;;;;;;0.20;0.20;;;21.90;44.00;;;;;;6190580;28;20027;-73
2022/06/04 03:03:00;;;;;;;0.25;0.25;;;21.90;43.90;;;;;;6170443;28;20051;-74
2022/06/04 03:06:04;;;;;;;0.68;0.30;;;21.90;43.90;;;;;;6181382;28;20027;-72
2022/06/04 03:09:09;;;;;;;0.30;0.30;;;21.90;43.90;;;;;;6193579;28;20026;-74
2022/06/04 03:12:11;;;;;;;0.40;0.40;;;21.90;43.90;;;;;;6173809;28;20074;-73
2022/06/04 03:15:12;;;;;;;0.28;0.28;;;21.90;43.80;;;;;;6172815;28;20030;-73
2022/06/04 03:18:14;;;;;;;0.38;0.38;;;21.90;43.90;;;;;;6193484;28;20034;-73
2022/06/04 03:21:15;;;;;;;0.30;0.30;;;21.90;44.10;;;;;;6119538;29;20123;-73
2022/06/04 03:24:16;;;;;;;0.93;0.43;;;21.90;43.90;;;;;;6119457;29;20043;-72
2022/06/04 03:27:16;;;;;;;0.50;0.40;;;22.00;43.90;;;;;;6119629;29;20042;-73
2022/06/04 03:30:17;;;;;;;0.40;0.40;;;21.90;43.90;;;;;;6119205;29;20043;-72
2022/06/04 03:33:18;;;;;;;0.40;0.40;;;21.90;43.80;;;;;;6120504;29;20075;-72
2022/06/04 03:36:18;;;;;;;0.30;0.30;;;22.00;43.90;;;;;;6123589;29;20087;-73
2022/06/04 03:39:19;;;;;;;0.52;0.40;;;22.00;43.80;;;;;;6123734;29;20042;-72
2022/06/04 03:42:20;;;;;;;0.32;0.30;;;22.00;43.90;;;;;;6123466;29;20067;-73
2022/06/04 03:45:21;;;;;;;0.32;0.30;;;22.00;43.90;;;;;;6123332;29;20027;-73
2022/06/04 03:48:22;;;;;;;0.30;0.30;;;22.00;43.90;;;;;;6125150;29;20035;-73
2022/06/04 03:51:24;;;;;;;0.40;0.40;;;21.90;43.90;;;;;;6139066;28;20047;-73
2022/06/04 03:57:48;;;;;;;0.28;0.28;;;22.00;43.80;;;;;;6180341;28;20031;-71
2022/06/04 04:00:48;;;;;;;0.50;0.45;;;22.00;43.80;;;;;;6176432;28;20047;-71
2022/06/04 04:03:49;;;;;;;0.20;0.20;;;21.90;43.70;;;;;;6198393;28;20064;-71
2022/06/04 04:06:50;;;;;;;0.22;0.20;;;21.90;43.70;;;;;;6187693;28;20054;-71
2022/06/04 04:09:51;;;;;;;0.35;0.30;;;22.00;43.70;;;;;;6172225;28;20074;-71
2022/06/04 04:12:52;;;;;;;0.40;0.40;;;22.00;43.70;;;;;;6189682;28;20057;-71
2022/06/04 04:15:52;;;;;;;0.50;0.50;;;22.00;44.40;;;;;;6195800;28;20034;-72
2022/06/04 04:18:53;;;;;;;0.30;0.30;;;22.00;43.90;;;;;;6173179;28;20066;-72
2022/06/04 04:21:54;;;;;;;0.22;0.22;;;22.00;43.80;;;;;;6181138;28;20389;-72
2022/06/04 04:24:55;;;;;;;0.85;0.60;;;21.90;43.70;;;;;;6196361;28;20594;-71
2022/06/04 04:27:57;;;;;;;0.40;0.30;;;22.00;43.80;;;;;;6181995;28;20123;-71
2022/06/04 04:30:58;;;;;;;0.80;0.40;;;22.00;43.70;;;;;;6179458;28;20700;-71
2022/06/04 04:34:00;;;;;;;0.30;0.30;;;22.00;43.70;;;;;;6190924;28;20170;-71
2022/06/04 04:37:00;;;;;;;0.40;0.30;;;22.00;43.70;;;;;;6189433;28;20410;-72
2022/06/04 04:40:01;;;;;;;0.30;0.30;;;22.00;43.70;;;;;;6172063;28;20713;-71
2022/06/04 04:43:02;;;;;;;0.20;0.20;;;22.00;43.70;;;;;;6186744;28;20038;-71
2022/06/04 04:46:06;;;;;;;0.20;0.20;;;21.90;43.70;;;;;;6194817;28;20027;-71
2022/06/04 04:49:07;;;;;;;0.30;0.28;;;21.90;43.80;;;;;;6173348;28;20420;-71
2022/06/04 04:52:07;;;;;;;0.40;0.30;;;22.00;43.70;;;;;;6176930;28;20073;-71
2022/06/04 04:55:08;;;;;;;0.20;0.20;;;22.00;43.70;;;;;;6187329;28;20027;-71
2022/06/04 04:58:09;;;;;;;0.20;0.20;;;22.00;43.60;;;;;;6184591;28;20081;-71
2022/06/04 05:01:24;;;;;;;0.20;0.20;;;22.00;43.60;;;;;;6192021;28;20034;-71
2022/06/04 05:04:25;;;;;;;1.20;0.40;;;21.90;44.30;;;;;;6194029;28;20042;-72
2022/06/04 05:07:26;;;;;;;0.57;0.30;;;21.80;44.90;;;;;;6188862;28;20058;-71
2022/06/04 05:10:27;;;;;;;0.28;0.28;;;21.80;45.50;;;;;;6170915;28;20035;-71
2022/06/04 05:13:28;;;;;;;0.35;0.35;;;21.70;45.70;;;;;;6184697;28;20018;-71
2022/06/04 05:16:35;;;;;;;0.38;0.38;;;21.70;46.20;;;;;;6193443;28;20512;-71
2022/06/04 05:19:36;;;;;;;0.25;0.25;;;21.70;46.30;;;;;;6174211;28;20074;-71
2022/06/04 05:22:37;;;;;;;0.35;0.30;;;21.60;46.40;;;;;;6178119;28;20027;-71
2022/06/04 05:25:37;;;;;;;0.30;0.30;;;21.60;46.50;;;;;;6170535;28;20019;-71
2022/06/04 05:28:38;;;;;;;0.68;0.32;;;21.60;46.50;;;;;;6171026;28;20101;-71
2022/06/04 05:31:39;;;;;;;0.95;0.25;;;21.60;46.40;;;;;;6170304;28;20045;-71
2022/06/04 05:34:40;;;;;;;0.30;0.30;;;21.50;46.60;;;;;;6171431;28;20054;-71
2022/06/04 05:37:41;;;;;;;0.40;0.35;;;21.60;46.80;;;;;;6174996;28;20069;-71
2022/06/04 05:40:41;;;;;;;0.55;0.30;;;21.50;46.70;;;;;;6194517;28;20057;-71
2022/06/04 05:43:42;;;;;;;0.50;0.40;;;21.50;46.80;;;;;;6182780;28;20027;-71
2022/06/04 05:46:44;;;;;;;0.40;0.40;;;21.50;46.90;;;;;;6170158;28;20474;-71
2022/06/04 05:49:45;;;;;;;0.30;0.30;;;21.50;47.10;;;;;;6190669;28;20113;-71
2022/06/04 05:52:45;;;;;;;0.40;0.30;;;21.50;47.30;;;;;;6192291;28;20026;-71
2022/06/04 05:55:46;;;;;;;0.40;0.30;;;21.50;47.10;;;;;;6171844;28;20027;-71
2022/06/04 05:58:48;;;;;;;0.50;0.40;;;21.50;47.30;;;;;;6171525;28;20058;-71
2022/06/04 06:01:50;;;;;;;0.28;0.28;;;21.50;47.30;;;;;;6171104;28;20029;-71
2022/06/04 06:04:51;;;;;;;0.63;0.50;;;21.50;47.30;;;;;;6189482;28;20023;-71
2022/06/04 06:07:53;;;;;;;0.50;0.50;;;21.50;47.40;;;;;;6193809;28;20030;-73
2022/06/04 06:10:54;;;;;;;0.45;0.43;;;21.50;47.60;;;;;;6171448;28;20134;-71
2022/06/04 06:13:54;;;;;;;0.52;0.40;;;21.50;47.80;;;;;;6180646;28;20019;-71
2022/06/04 06:16:55;;;;;;;0.47;0.40;;;21.50;47.60;;;;;;6177649;28;20037;-71
2022/06/04 06:19:56;;;;;;;0.80;0.50;;;21.50;48.00;;;;;;6179012;28;20026;-72
2022/06/04 06:22:57;;;;;;;0.65;0.60;;;21.40;47.90;;;;;;6170376;28;20050;-71
2022/06/04 06:26:04;;;;;;;0.47;0.47;;;21.40;48.70;;;;;;6193934;28;20552;-71
2022/06/04 06:29:05;;;;;;;0.85;0.52;;;21.40;48.10;;;;;;6185955;28;20019;-71
2022/06/04 06:32:06;;;;;;;0.45;0.40;;;21.40;48.10;;;;;;6170837;28;20060;-71
2022/06/04 06:35:08;;;;;;;0.57;0.43;;;21.40;48.10;;;;;;6170749;28;20034;-72
2022/06/04 06:38:09;;;;;;;1.02;0.65;;;21.40;48.10;;;;;;6170840;28;20031;-72
2022/06/04 06:41:09;;;;;;;0.68;0.50;;;21.40;48.20;;;;;;6194984;28;20038;-71
2022/06/04 06:44:11;;;;;;;1.00;0.70;;;21.40;48.20;;;;;;6187435;28;20102;-72
2022/06/04 06:47:12;;;;;;;0.30;0.30;;;21.40;48.20;;;;;;6169194;28;20030;-72
2022/06/04 06:50:14;;;;;;;0.52;0.50;;;21.40;48.30;;;;;;6184518;28;20766;-72
2022/06/04 06:53:16;;;;;;;0.47;0.40;;;21.40;48.30;;;;;;6193115;28;20440;-72
2022/06/04 06:56:20;;;;;;;1.42;0.57;;;21.40;48.30;;;;;;6170943;28;20031;-71
2022/06/04 06:59:21;;;;;;;0.43;0.40;;;21.40;48.30;;;;;;6177682;28;20026;-71
2022/06/04 07:02:22;;;;;;;0.50;0.40;;;21.40;48.40;;;;;;6194819;28;20022;-72
2022/06/04 07:05:22;;;;;;;0.40;0.40;;;21.40;48.40;;;;;;6181167;28;20373;-71
2022/06/04 07:08:23;;;;;;;0.77;0.50;;;21.40;48.40;;;;;;6171593;28;20371;-72
2022/06/04 07:11:25;;;;;;;0.70;0.52;;;21.40;48.40;;;;;;6196737;28;20030;-72
2022/06/04 07:14:25;;;;;;;1.08;0.50;;;21.40;48.30;;;;;;6193499;28;20034;-71
2022/06/04 07:17:26;;;;;;;0.70;0.45;;;21.40;48.30;;;;;;6175222;28;20058;-73
2022/06/04 07:20:27;;;;;;;0.40;0.40;;;21.40;48.30;;;;;;6188120;28;20050;-71
2022/06/04 07:23:27;;;;;;;0.40;0.40;;;21.40;48.20;;;;;;6199063;28;20076;-72
2022/06/04 07:26:28;;;;;;;0.40;0.40;;;21.40;48.20;;;;;;6178754;28;20440;-72
2022/06/04 07:29:29;;;;;;;0.52;0.40;;;21.40;48.20;;;;;;6178349;28;20021;-71
2022/06/04 07:32:30;;;;;;;0.40;0.40;;;21.40;48.20;;;;;;6198437;28;20108;-71
2022/06/04 07:35:31;;;;;;;0.50;0.40;;;21.40;48.20;;;;;;6188804;28;20039;-72
2022/06/04 07:38:32;;;;;;;0.40;0.40;;;21.40;48.20;;;;;;6198065;28;20014;-71
2022/06/04 07:41:36;;;;;;;0.77;0.47;;;21.40;48.30;;;;;;6178854;28;20031;-73
2022/06/04 07:44:37;;;;;;;0.60;0.40;;;21.30;48.20;;;;;;6176581;28;20640;-72
2022/06/04 07:47:40;;;;;;;0.45;0.40;;;21.40;48.30;;;;;;6198751;28;20030;-72
2022/06/04 07:50:42;;;;;;;0.70;0.57;;;21.30;49.00;;;;;;6188034;28;20031;-72
2022/06/04 07:53:43;;;;;;;0.70;0.50;;;21.30;48.20;;;;;;6174292;28;20023;-72
2022/06/04 07:56:44;;;;;;;0.30;0.30;;;21.30;48.30;;;;;;6192698;28;20561;-72
2022/06/04 07:59:45;;;;;;;0.47;0.32;;;21.30;48.30;;;;;;6196395;28;20030;-71
2022/06/04 08:02:47;;;;;;;0.77;0.52;;;21.30;48.40;;;;;;6173735;28;20446;-72
2022/06/04 08:05:49;;;;;;;0.43;0.40;;;21.30;48.40;;;;;;6176101;28;20058;-71
2022/06/04 08:08:54;;;;;;;0.40;0.40;;;21.30;48.50;;;;;;6196606;28;20033;-71
2022/06/04 08:11:55;;;;;;;;;;;21.30;48.50;;;;;;6179524;28;20117;-71
2022/06/04 08:14:55;;;;;;;0.55;0.45;;;21.30;48.50;;;;;;6175023;28;19906;-71
2022/06/04 08:17:56;;;;;;;0.40;0.35;;;21.30;48.50;;;;;;6198007;28;20023;-72
2022/06/04 08:20:57;;;;;;;0.40;0.40;;;21.30;48.50;;;;;;6189582;28;20019;-73
2022/06/04 08:23:57;;;;;;;0.40;0.40;;;21.30;48.50;;;;;;6173880;28;20023;-72
2022/06/04 08:26:59;;;;;;;0.40;0.40;;;21.30;48.50;;;;;;6189902;28;20026;-71
2022/06/04 08:30:00;;;;;;;0.30;0.30;;;21.30;48.50;;;;;;6196493;28;20038;-71
2022/06/04 08:33:01;;;;;;;0.40;0.40;;;21.30;48.60;;;;;;6172535;28;20053;-71
2022/06/04 08:36:03;;;;;;;2.22;0.40;;;21.30;48.60;;;;;;6172430;28;20146;-71
2022/06/04 08:39:04;;;;;;;0.52;0.35;;;21.30;48.60;;;;;;6172979;28;20021;-72
2022/06/04 08:42:10;;;;;;;0.40;0.40;;;21.30;48.60;;;;;;6188483;28;20417;-71
2022/06/04 08:45:12;;;;;;;0.38;0.38;;;21.30;48.60;;;;;;6197449;28;20018;-72
2022/06/04 08:48:37;;;;;;;0.45;0.40;;;21.30;48.60;;;;;;6156582;28;20393;-71
2022/06/04 08:51:38;;;;;;;0.30;0.30;;;21.30;48.60;;;;;;6182796;28;20034;-72
2022/06/04 08:58:04;;;;;;;0.68;0.40;;;21.30;48.60;;;;;;6176800;28;20646;-72
2022/06/04 09:01:12;;;;;;;0.70;0.32;;;21.30;48.70;;;;;;6175885;28;20032;-71
2022/06/04 09:04:31;;;;;;;0.70;0.50;;;21.30;48.70;;;;;;6196333;28;20464;-72
2022/06/04 09:07:38;;;;;;;0.30;0.30;;;21.30;48.70;;;;;;6181613;28;20030;-72
2022/06/04 09:10:47;;;;;;;0.43;0.40;;;21.30;48.70;;;;;;6172652;28;20057;-72
2022/06/04 09:14:01;;;;;;;0.30;0.30;;;21.30;48.80;;;;;;6195373;28;20026;-71
2022/06/04 09:17:31;;;;;;;0.70;0.50;;;21.30;48.80;;;;;;6185538;28;20389;-71
2022/06/04 09:20:45;;;;;;;0.30;0.30;;;21.30;48.80;;;;;;6167570;28;20027;-72
2022/06/04 09:23:47;;;;;;;0.57;0.40;;;21.30;48.80;;;;;;6192160;28;20030;-72
2022/06/04 09:27:10;;;;;;;0.35;0.30;;;21.30;48.90;;;;;;6190868;28;20022;-72
2022/06/04 09:30:30;;;;;;;0.30;0.30;;;21.30;48.80;;;;;;6156585;28;20023;-72
2022/06/04 09:33:46;;;;;;;0.30;0.30;;;21.30;48.90;;;;;;6164061;28;20448;-71
2022/06/04 09:36:48;;;;;;;0.30;0.30;;;21.30;49.00;;;;;;6147726;28;20118;-73
2022/06/04 09:40:05;;;;;;;0.40;0.35;;;21.30;48.70;;;;;;6167776;28;20084;-71
2022/06/04 09:43:15;;;;;;;0.85;0.38;;;21.30;49.00;;;;;;6163284;28;20045;-71
2022/06/04 09:46:16;;;;;;;0.45;0.32;;;21.30;49.00;;;;;;6168551;28;20031;-72
2022/06/04 09:49:31;;;;;;;0.30;0.30;;;21.30;48.90;;;;;;6191699;28;20525;-71
2022/06/04 09:52:38;;;;;;;0.40;0.40;;;21.30;48.90;;;;;;6173869;28;20033;-72
2022/06/04 09:55:47;;;;;;;0.40;0.40;;;21.30;48.90;;;;;;6161659;28;20469;-71
2022/06/04 09:58:49;;;;;;;1.90;0.50;;;21.40;48.70;;;;;;6152745;28;20031;-72
2022/06/04 10:01:59;;;;;;;0.98;0.43;;;21.40;48.60;;;;;;6185164;28;20658;-72
2022/06/04 10:05:06;;;;;;;0.88;0.50;;;21.40;48.50;;;;;;6179066;28;20030;-73
2022/06/04 10:08:12;;;;;;;0.40;0.40;;;21.40;48.50;;;;;;6181096;28;20098;-72
2022/06/04 10:11:17;;;;;;;0.40;0.30;;;21.40;48.40;;;;;;6168826;28;20081;-71
2022/06/04 10:14:38;;;;;;;0.25;0.25;;;21.40;48.40;;;;;;6188924;28;20030;-72
2022/06/04 10:17:39;;;;;;;0.63;0.40;;;21.40;48.30;;;;;;6194721;28;20303;-73
2022/06/04 10:20:40;;;;;;;1.13;0.40;;;21.40;48.30;;;;;;6173889;28;20035;-74
2022/06/04 10:23:44;;;;;;;1.70;0.80;;;21.40;48.40;;;;;;6166454;28;20023;-72
2022/06/04 10:27:23;;;;;;;2.55;0.60;;;21.50;48.50;;;;;;6172902;28;20030;-72
2022/06/04 10:30:50;;;;;;;2.38;0.40;;;21.40;48.40;;;;;;6148670;28;20049;-72
2022/06/04 10:34:09;;;;;;;2.47;0.60;;;21.40;48.30;;;;;;6177667;28;20035;-73
2022/06/04 10:37:18;;;;;;;2.10;0.70;;;21.40;48.30;;;;;;6168658;28;20353;-72
2022/06/04 10:40:54;;;;;;;4.43;0.50;;;21.40;48.30;;;;;;6192934;28;20029;-72
2022/06/04 10:44:15;;;;;;;;;;;21.40;48.30;;;;;;6123582;28;20103;-72
2022/06/04 10:47:21;;;;;;;1.85;0.63;;;21.40;48.20;;;;;;6198708;28;20296;-73
2022/06/04 10:51:25;;;;;;;1.45;0.60;;;21.50;48.30;;;;;;6184488;28;20555;-73
2022/06/04 10:54:20;;;;;;;1.65;0.70;;;21.40;48.20;;;;;;6185657;28;20031;-73
2022/06/04 10:57:43;;;;;;;1.77;0.70;;;21.40;48.20;;;;;;6174659;28;20023;-72
2022/06/04 11:00:51;;;;;;;3.25;1.00;;;21.40;48.30;;;;;;6173961;28;20023;-72
2022/06/04 11:04:23;;;;;;;1.60;1.00;;;21.50;48.30;;;;;;6184590;28;20026;-72
2022/06/04 11:07:36;;;;;;;0.73;0.55;;;21.40;48.20;;;;;;6193143;28;20117;-72
2022/06/04 11:10:46;;;;;;;3.88;0.80;;;21.40;48.40;;;;;;6173184;28;20031;-72
2022/06/04 11:13:56;;;;;;;3.15;0.80;;;21.40;48.40;;;;;;6181380;28;20473;-72
2022/06/04 11:17:11;;;;;;;1.40;0.50;;;21.40;48.50;;;;;;6196482;28;20042;-72
2022/06/04 11:20:22;;;;;;;1.35;0.82;;;21.40;48.60;;;;;;6197775;28;20077;-72
2022/06/04 11:23:42;;;;;;;2.17;0.80;;;21.40;48.80;;;;;;6192220;28;20490;-73
2022/06/04 11:26:58;;;;;;;1.15;0.70;;;21.40;48.60;;;;;;6172389;28;20505;-72
2022/06/04 11:30:00;;;;;;;1.00;0.70;;;21.40;48.60;;;;;;6179375;28;20038;-72
2022/06/04 11:33:18;;;;;;;1.13;0.82;;;21.40;48.70;;;;;;6196724;28;20049;-72
2022/06/04 11:36:45;;;;;;;1.63;0.90;;;21.40;48.70;;;;;;6171908;28;20034;-72
2022/06/04 11:40:03;;;;;;;1.38;0.90;;;21.40;48.70;;;;;;6185879;28;20041;-71
2022/06/04 11:43:21;;;;;;;2.00;1.10;;;21.40;48.70;;;;;;6197759;28;20058;-72
2022/06/04 11:46:47;;;;;;;1.42;0.90;;;21.40;48.80;;;;;;6173449;28;20062;-72
2022/06/04 11:50:14;;;;;;;1.85;1.00;;;21.40;48.90;;;;;;6178990;28;20279;-72
2022/06/04 11:53:27;;;;;;;1.95;1.20;;;21.40;49.00;;;;;;6145029;28;20057;-73
2022/06/04 11:57:00;;;;;;;5.28;0.90;;;21.40;49.10;;;;;;6171995;28;20027;-72
2022/06/04 12:00:28;;;;;;;3.38;0.93;;;21.40;49.10;;;;;;6196405;28;20069;-72
2022/06/04 12:03:43;;;;;;;2.10;0.88;;;21.40;49.10;;;;;;6189564;28;20054;-73
2022/06/04 12:07:06;;;;;;;1.33;0.90;;;21.30;49.10;;;;;;6171345;28;20039;-72
2022/06/04 12:10:36;;;;;;;1.75;1.10;;;21.30;49.10;;;;;;6181397;28;20074;-72
2022/06/04 12:13:40;;;;;;;2.55;0.90;;;21.30;49.10;;;;;;6173825;28;20064;-72
2022/06/04 12:17:07;;;;;;;1.83;1.10;;;21.30;49.20;;;;;;6187728;28;20381;-72
2022/06/04 12:27:24;;;;;;;2.35;0.85;;;21.30;49.20;;;;;;6170873;28;20297;-72
2022/06/04 12:30:37;;;;;;;0.80;0.80;;;21.30;49.20;;;;;;6179232;28;20041;-72
2022/06/04 12:33:51;;;;;;;1.35;0.80;;;21.30;49.60;;;;;;6171767;28;20054;-72
2022/06/04 12:36:53;;;;;;;1.50;1.08;;;21.30;49.30;;;;;;6171293;28;20647;-72
2022/06/04 12:39:55;;;;;;;1.08;0.90;;;21.30;49.30;;;;;;6177851;28;20093;-72
2022/06/04 12:43:14;;;;;;;2.47;1.00;;;21.30;49.30;;;;;;6194360;28;20459;-72
2022/06/04 12:46:21;;;;;;;1.35;0.77;;;21.30;49.30;;;;;;6176714;28;20033;-72
2022/06/04 12:49:37;;;;;;;1.33;0.80;;;21.30;49.30;;;;;;6172352;28;20458;-71
2022/06/04 12:52:44;;;;;;;1.50;0.90;;;21.30;49.30;;;;;;6171662;28;20031;-74
2022/06/04 12:55:50;;;;;;;10.18;1.33;;;21.30;49.40;;;;;;6181832;28;20028;-74
2022/06/04 12:58:54;;;;;;;8.70;0.93;;;21.40;49.70;;;;;;6196268;28;20023;-74
2022/06/04 13:01:54;;;;;;;2.80;0.93;;;21.40;49.70;;;;;;6176224;28;20043;-73
2022/06/04 13:05:19;;;;;;;1.25;0.70;;;21.40;49.70;;;;;;6173092;28;20027;-73
2022/06/04 13:08:20;;;;;;;4.70;1.60;;;21.40;49.60;;;;;;6181198;28;20482;-73
2022/06/04 13:11:27;;;;;;;2.25;0.80;;;21.40;49.50;;;;;;6181576;28;20137;-73
2022/06/04 13:14:45;;;;;;;1.58;0.70;;;21.40;49.50;;;;;;6194862;28;20057;-72
2022/06/04 13:17:48;;;;;;;3.78;0.93;;;21.40;49.20;;;;;;6195522;28;20154;-73
2022/06/04 13:20:56;;;;;;;3.22;0.90;;;21.40;49.20;;;;;;6186653;28;20114;-74
2022/06/04 13:24:01;;;;;;;2.80;0.98;;;21.40;49.20;;;;;;6171884;28;20386;-73
2022/06/04 13:27:11;;;;;;;2.03;1.00;;;21.40;49.10;;;;;;6187083;28;20029;-74
2022/06/04 13:30:23;;;;;;;1.27;0.80;;;21.40;49.00;;;;;;6193399;28;20031;-73
2022/06/04 13:33:24;;;;;;;1.23;0.85;;;21.40;48.90;;;;;;6170705;28;20057;-73
2022/06/04 13:36:30;;;;;;;1.27;0.90;;;21.40;48.90;;;;;;6170426;28;20026;-73
2022/06/04 13:39:32;;;;;;;1.05;0.88;;;21.40;48.90;;;;;;6170842;28;20027;-73
2022/06/04 13:42:36;;;;;;;1.88;0.80;;;21.40;48.90;;;;;;6181247;28;20022;-73
2022/06/04 13:45:37;;;;;;;1.90;0.88;;;21.40;48.90;;;;;;6167712;28;20516;-74
2022/06/04 13:48:49;;;;;;;1.50;0.80;;;21.40;48.90;;;;;;6194669;28;20034;-73
2022/06/04 13:52:12;;;;;;;1.13;0.80;;;21.50;49.00;;;;;;6161478;28;20051;-73
2022/06/04 13:55:36;;;;;;;2.55;1.00;;;21.40;48.90;;;;;;6169390;28;20038;-73
2022/06/04 13:58:42;;;;;;;3.20;1.08;;;21.40;48.90;;;;;;6169288;28;20023;-73
2022/06/04 14:01:43;;;;;;;2.45;1.00;;;21.40;48.90;;;;;;6180701;28;20031;-73
2022/06/04 14:08:07;;;;;;;1.13;0.80;;;21.40;48.90;;;;;;6169739;28;20504;-73
2022/06/04 14:11:32;;;;;;;2.28;0.95;;;21.40;48.90;;;;;;6172921;28;20053;-73
2022/06/04 14:14:41;;;;;;;1.60;0.90;;;21.40;48.90;;;;;;6190100;28;20061;-73
2022/06/04 14:18:15;;;;;;;1.73;0.75;;;21.40;48.90;;;;;;6193156;28;20649;-73
2022/06/04 14:21:46;;;;;;;1.20;0.70;;;21.40;48.90;;;;;;6191361;28;20023;-73
2022/06/04 14:24:57;;;;;;;0.95;0.73;;;21.40;48.90;;;;;;6166463;28;20057;-74
2022/06/04 14:28:11;;;;;;;1.00;0.80;;;21.40;48.90;;;;;;6175801;28;20023;-74
2022/06/04 14:31:31;;;;;;;1.65;0.93;;;21.40;48.90;;;;;;6168886;28;20043;-74
2022/06/04 14:34:46;;;;;;;4.18;1.08;;;21.40;48.90;;;;;;6152297;28;20525;-74
2022/06/04 14:37:48;;;;;;;;;;;21.40;48.90;;;;;;6183141;28;20026;-73
2022/06/04 14:41:21;;;;;;;1.75;0.90;;;21.40;48.90;;;;;;6177775;28;19917;-72
2022/06/04 14:44:22;;;;;;;7.22;0.93;;;21.40;48.90;;;;;;6132012;28;20415;-73
2022/06/04 14:47:58;;;;;;;2.53;0.70;;;21.40;48.90;;;;;;6177391;28;20026;-73
2022/06/04 14:51:22;;;;;;;3.55;1.08;;;21.40;48.90;;;;;;6158768;28;20050;-73
2022/06/04 14:54:24;;;;;;;3.05;0.75;;;21.40;48.90;;;;;;6169058;28;20027;-73
2022/06/04 14:58:01;;;;;;;3.17;1.05;;;21.40;49.00;;;;;;6176975;28;20018;-74
2022/06/04 15:01:09;;;;;;;6.80;1.00;;;21.40;48.90;;;;;;6193894;28;20022;-74
2022/06/04 15:04:48;;;;;;;6.78;1.08;;;21.40;48.90;;;;;;6181445;28;20661;-73
2022/06/04 15:08:32;;;;;;;5.50;0.80;;;21.40;49.70;;;;;;6163540;28;20030;-73
2022/06/04 15:12:00;;;;;;;1.30;0.70;;;21.40;49.00;;;;;;6180713;28;20039;-73
2022/06/04 15:15:28;;;;;;;2.30;1.00;;;21.40;48.90;;;;;;6119505;29;20043;-73
2022/06/04 15:18:41;;;;;;;2.67;0.70;;;21.40;49.00;;;;;;6127175;29;20086;-74
2022/06/04 15:21:53;;;;;;;1.15;0.68;;;21.40;49.00;;;;;;6125532;29;20450;-73
2022/06/04 15:25:11;;;;;;;1.30;0.60;;;21.50;49.00;;;;;;6120261;29;20039;-74
2022/06/04 15:36:16;;;;;;;1.35;0.70;;;21.40;49.00;;;;;;6122871;29;20430;-74
2022/06/04 15:39:38;;;;;;;2.63;0.70;;;21.40;49.00;;;;;;6139685;29;20503;-74
2022/06/04 15:42:48;;;;;;;2.08;1.27;;;21.40;49.00;;;;;;6125101;29;20024;-74
2022/06/04 15:46:19;;;;;;;8.85;1.15;;;21.40;49.00;;;;;;6148132;28;20039;-73
2022/06/04 15:55:23;;;;;;;4.43;0.88;;;21.40;49.00;;;;;;6187676;28;20042;-73
2022/06/04 15:56:22;;;;;;;4.63;1.00;;;21.40;49.00;;;;;;6196289;28;20486;-73
2022/06/04 15:59:39;;;;;;;1.33;0.70;;;21.40;49.00;;;;;;6180846;28;20033;-74
2022/06/04 16:02:41;;;;;;;2.92;0.88;;;21.40;49.70;;;;;;6173383;28;20023;-73
2022/06/04 16:05:52;;;;;;;2.45;0.63;;;21.40;49.00;;;;;;6183574;28;20023;-73
2022/06/04 16:09:16;;;;;;;1.92;0.57;;;21.40;49.10;;;;;;6182374;28;20109;-74
2022/06/04 16:12:34;;;;;;;4.22;0.70;;;21.40;49.10;;;;;;6171684;28;20031;-74
2022/06/04 16:15:57;;;;;;;3.95;0.85;;;21.40;49.10;;;;;;6175117;28;20171;-73
2022/06/04 16:19:18;;;;;;;4.15;0.82;;;21.50;49.20;;;;;;6181085;28;20037;-74
2022/06/04 16:22:45;;;;;;;4.70;1.02;;;21.50;49.20;;;;;;6195973;28;20461;-74
2022/06/04 16:26:08;;;;;;;7.40;1.20;;;21.50;49.20;;;;;;6169781;28;20069;-73
2022/06/04 16:29:24;;;;;;;13.73;1.23;;;21.50;49.20;;;;;;6186767;28;20446;-72
2022/06/04 16:32:24;;;;;;;5.40;1.05;;;21.50;49.20;;;;;;6172175;28;20062;-73
2022/06/04 16:35:25;;;;;;;6.25;0.95;;;21.50;49.20;;;;;;6172726;28;20413;-73
2022/06/04 16:38:35;;;;;;;6.80;0.90;;;21.40;49.20;;;;;;6172742;28;20045;-73
2022/06/04 16:41:55;;;;;;;2.58;0.82;;;21.40;49.80;;;;;;6160325;28;20029;-73
2022/06/04 16:45:05;;;;;;;6.18;1.20;;;21.40;49.20;;;;;;6156451;28;20524;-74
2022/06/04 16:48:07;;;;;;;1.48;0.80;;;21.40;49.10;;;;;;6195992;28;20029;-74
2022/06/04 16:51:10;;;;;;;2.17;0.82;;;21.40;49.20;;;;;;6171635;28;20137;-74
2022/06/04 16:54:11;;;;;;;1.63;0.80;;;21.40;49.20;;;;;;6182895;28;20034;-73
2022/06/04 16:57:12;;;;;;;4.88;0.90;;;21.40;49.20;;;;;;6171846;28;20030;-74